createdAt,value
2018-03-28T00:00:32.822Z,7.00
2018-03-28T00:03:01.468Z,7.00
2018-03-28T00:05:29.835Z,7.00
2018-03-28T00:07:58.123Z,7.10
2018-03-28T00:10:26.507Z,7.10
2018-03-28T00:12:54.792Z,7.20
2018-03-28T00:15:23.063Z,7.10
2018-03-28T00:17:51.393Z,7.20
2018-03-28T00:20:20.419Z,7.10
2018-03-28T00:22:48.692Z,7.10
2018-03-28T00:25:17.063Z,7.20
2018-03-28T00:27:45.351Z,7.20
2018-03-28T00:30:13.638Z,7.20
2018-03-28T00:50:45.444Z,7.00
2018-03-28T00:53:13.724Z,7.00
2018-03-28T00:55:42.015Z,7.00
2018-03-28T00:58:10.370Z,7.00
2018-03-28T01:00:38.672Z,7.10
2018-03-28T01:03:06.932Z,7.10
2018-03-28T01:05:35.576Z,7.10
2018-03-28T01:08:04.629Z,7.10
2018-03-28T01:10:32.927Z,7.10
2018-03-28T01:13:01.243Z,7.10
2018-03-28T01:15:30.263Z,7.20
2018-03-28T01:17:58.539Z,7.10
2018-03-28T01:20:26.832Z,7.20
2018-03-28T01:22:55.072Z,7.30
2018-03-28T01:25:24.112Z,7.30
2018-03-28T01:27:52.515Z,7.30
2018-03-28T01:30:20.816Z,7.30
2018-03-28T01:32:50.595Z,7.40
2018-03-28T01:53:23.607Z,7.50
2018-03-28T01:55:51.868Z,7.50
2018-03-28T01:58:20.090Z,7.50
2018-03-28T02:00:48.388Z,7.50
2018-03-28T02:03:16.667Z,7.50
2018-03-28T02:05:45.026Z,7.50
2018-03-28T02:08:13.283Z,7.50
2018-03-28T02:10:41.560Z,7.60
2018-03-28T02:13:09.824Z,7.50
2018-03-28T02:15:38.877Z,7.50
2018-03-28T02:18:07.144Z,7.50
2018-03-28T02:20:35.409Z,7.50
2018-03-28T02:23:03.941Z,7.50
2018-03-28T02:43:34.655Z,7.50
2018-03-28T02:46:02.972Z,7.50
2018-03-28T02:48:31.344Z,7.40
2018-03-28T02:50:59.632Z,7.50
2018-03-28T02:53:28.129Z,7.50
2018-03-28T02:55:56.391Z,7.50
2018-03-28T03:16:28.716Z,7.70
2018-03-28T03:18:57.759Z,7.80
2018-03-28T03:21:26.023Z,7.80
2018-03-28T03:23:54.304Z,7.80
2018-03-28T03:26:22.575Z,7.70
2018-03-28T03:28:50.798Z,7.70
2018-03-28T03:31:19.282Z,7.70
2018-03-28T03:33:47.576Z,7.60
2018-03-28T03:36:15.799Z,7.70
2018-03-28T03:38:44.224Z,7.70
2018-03-28T03:41:12.480Z,7.70
2018-03-28T03:43:40.708Z,7.70
2018-03-28T03:46:09.813Z,7.80
2018-03-28T03:48:38.144Z,7.80
2018-03-28T03:51:06.372Z,7.80
2018-03-28T03:53:35.444Z,7.90
2018-03-28T03:56:03.724Z,7.90
2018-03-28T03:58:31.992Z,7.90
2018-03-28T04:01:00.235Z,7.90
2018-03-28T04:03:28.508Z,8.00
2018-03-28T04:05:57.543Z,8.00
2018-03-28T04:08:25.910Z,8.00
2018-03-28T04:10:54.224Z,8.00
2018-03-28T04:13:22.512Z,8.00
2018-03-28T04:15:50.743Z,8.00
2018-03-28T04:18:19.061Z,8.00
2018-03-28T04:20:47.318Z,8.00
2018-03-28T04:23:15.751Z,8.10
2018-03-28T04:25:44.109Z,8.10
2018-03-28T04:28:12.397Z,8.00
2018-03-28T04:30:40.936Z,8.00
2018-03-28T04:33:09.224Z,8.00
2018-03-28T04:35:37.485Z,8.00
2018-03-28T04:38:05.729Z,8.00
2018-03-28T04:40:34.038Z,8.00
2018-03-28T04:43:03.027Z,8.00
2018-03-28T04:45:32.296Z,7.90
2018-03-28T04:48:00.530Z,7.90
2018-03-28T04:50:28.944Z,7.90
2018-03-28T05:10:59.882Z,7.90
2018-03-28T05:13:28.163Z,7.80
2018-03-28T05:15:56.453Z,7.90
2018-03-28T05:18:24.792Z,7.90
2018-03-28T05:20:53.094Z,7.90
2018-03-28T05:41:26.443Z,8.00
2018-03-28T05:43:54.719Z,8.10
2018-03-28T05:46:22.943Z,8.10
2018-03-28T05:48:51.587Z,8.20
2018-03-28T05:51:20.021Z,8.10
2018-03-28T05:53:48.275Z,8.10
2018-03-28T05:56:16.570Z,8.10
2018-03-28T05:58:44.843Z,8.10
2018-03-28T06:01:13.079Z,8.20
2018-03-28T06:03:41.492Z,8.20
2018-03-28T06:06:09.752Z,8.20
2018-03-28T06:08:38.020Z,8.20
2018-03-28T06:11:06.641Z,8.20
2018-03-28T06:13:34.870Z,8.20
2018-03-28T06:16:03.177Z,8.20
2018-03-28T06:18:31.428Z,8.20
2018-03-28T06:21:00.448Z,8.20
2018-03-28T06:23:28.713Z,8.20
2018-03-28T06:25:57.781Z,8.30
2018-03-28T06:28:26.032Z,8.30
2018-03-28T06:30:54.308Z,8.30
2018-03-28T06:33:22.803Z,8.30
2018-03-28T06:35:51.274Z,8.40
2018-03-28T06:38:19.565Z,8.30
2018-03-28T06:40:48.047Z,8.30
2018-03-28T06:43:16.281Z,8.40
2018-03-28T06:45:44.572Z,8.40
2018-03-28T06:48:12.879Z,8.40
2018-03-28T06:50:41.153Z,8.40
2018-03-28T06:53:09.521Z,8.40
2018-03-28T06:55:37.837Z,8.40
2018-03-28T06:58:06.804Z,8.40
2018-03-28T07:00:35.036Z,8.40
2018-03-28T07:03:03.675Z,8.40
2018-03-28T07:05:31.898Z,8.40
2018-03-28T07:08:00.134Z,8.50
2018-03-28T07:10:28.746Z,8.60
2018-03-28T07:12:57.040Z,8.60
2018-03-28T07:15:25.311Z,8.70
2018-03-28T07:17:53.606Z,8.70
2018-03-28T07:20:21.871Z,8.70
2018-03-28T07:22:51.313Z,8.70
2018-03-28T07:43:21.009Z,8.90
2018-03-28T07:45:49.246Z,8.90
2018-03-28T07:48:17.508Z,8.90
2018-03-28T07:50:46.874Z,8.90
2018-03-28T07:53:15.436Z,8.90
2018-03-28T07:55:43.748Z,8.90
2018-03-28T07:58:12.028Z,8.90
2018-03-28T08:00:40.406Z,8.90
2018-03-28T08:03:08.687Z,8.90
2018-03-28T08:05:37.172Z,8.90
2018-03-28T08:08:05.427Z,8.90
2018-03-28T08:10:33.719Z,8.90
2018-03-28T08:13:02.091Z,8.90
2018-03-28T08:15:30.389Z,8.90
2018-03-28T08:17:58.672Z,8.90
2018-03-28T08:20:27.285Z,8.90
2018-03-28T08:22:55.575Z,8.90
2018-03-28T08:25:23.839Z,9.00
2018-03-28T08:27:52.124Z,9.00
2018-03-28T08:30:20.410Z,9.00
2018-03-28T08:32:48.724Z,9.10
2018-03-28T08:35:17.697Z,9.10
2018-03-28T08:37:47.096Z,9.20
2018-03-28T08:40:15.406Z,9.20
2018-03-28T08:42:44.545Z,9.30
2018-03-28T08:45:12.845Z,9.30
2018-03-28T08:47:41.090Z,9.30
2018-03-28T08:50:09.347Z,9.40
2018-03-28T08:52:37.646Z,9.50
2018-03-28T08:55:06.006Z,9.60
2018-03-28T08:57:35.072Z,9.70
2018-03-28T09:00:03.319Z,9.60
2018-03-28T09:02:31.591Z,9.80
2018-03-28T09:04:59.850Z,9.90
2018-03-28T09:07:28.157Z,9.90
2018-03-28T09:09:56.415Z,9.90
2018-03-28T09:12:24.940Z,9.90
2018-03-28T09:14:53.208Z,10.00
2018-03-28T09:17:21.483Z,9.90
2018-03-28T09:19:49.878Z,9.90
2018-03-28T09:22:18.131Z,9.90
2018-03-28T09:24:46.436Z,10.10
2018-03-28T09:27:14.901Z,10.10
2018-03-28T09:29:43.241Z,10.20
2018-03-28T09:32:11.513Z,10.30
2018-03-28T09:34:39.938Z,10.40
2018-03-28T09:37:08.222Z,10.50
2018-03-28T09:39:36.541Z,10.60
2018-03-28T09:42:05.025Z,10.60
2018-03-28T09:44:33.331Z,10.70
2018-03-28T09:47:01.595Z,10.80
2018-03-28T09:49:31.497Z,10.90
2018-03-28T09:51:59.735Z,10.90
2018-03-28T09:54:28.040Z,11.00
2018-03-28T09:56:56.620Z,11.00
2018-03-28T09:59:24.921Z,11.00
2018-03-28T10:19:56.416Z,11.10
2018-03-28T10:22:24.703Z,11.20
2018-03-28T10:24:53.005Z,11.30
2018-03-28T10:27:22.266Z,11.40
2018-03-28T10:29:50.641Z,11.40
2018-03-28T10:32:18.890Z,11.50
2018-03-28T10:34:47.127Z,11.70
2018-03-28T10:37:15.371Z,11.70
2018-03-28T10:39:43.660Z,11.70
2018-03-28T10:42:11.952Z,11.90
2018-03-28T10:44:40.254Z,12.10
2018-03-28T10:47:08.514Z,12.10
2018-03-28T10:49:37.159Z,12.00
2018-03-28T10:52:05.439Z,11.90
2018-03-28T10:54:33.712Z,12.00
2018-03-28T10:57:02.040Z,12.30
2018-03-28T10:59:30.278Z,12.50
2018-03-28T11:01:58.553Z,12.80
2018-03-28T11:04:27.644Z,12.80
2018-03-28T11:06:55.847Z,12.80
2018-03-28T11:09:24.143Z,12.70
2018-03-28T11:11:52.548Z,12.50
2018-03-28T11:14:20.813Z,12.50
2018-03-28T11:16:49.121Z,12.40
2018-03-28T11:19:17.448Z,12.40
2018-03-28T11:21:45.721Z,12.20
2018-03-28T11:24:14.009Z,12.20
2018-03-28T11:26:42.500Z,12.20
2018-03-28T11:29:10.805Z,12.20
2018-03-28T11:31:39.030Z,12.20
2018-03-28T11:34:07.335Z,12.20
2018-03-28T11:36:35.645Z,12.30
2018-03-28T11:39:03.899Z,12.30
2018-03-28T11:41:32.186Z,12.30
2018-03-28T11:44:00.467Z,12.30
2018-03-28T11:46:28.828Z,12.30
2018-03-28T11:48:57.120Z,12.50
2018-03-28T11:51:25.392Z,12.60
2018-03-28T11:53:53.656Z,12.60
2018-03-28T11:56:22.923Z,12.60
2018-03-28T11:58:51.154Z,12.60
2018-03-28T12:01:19.410Z,12.60
2018-03-28T12:03:48.780Z,12.40
2018-03-28T12:06:17.045Z,12.40
2018-03-28T12:08:45.297Z,12.30
2018-03-28T12:29:18.476Z,12.30
2018-03-28T12:31:46.714Z,12.30
2018-03-28T12:34:15.029Z,12.30
2018-03-28T12:36:43.776Z,12.40
2018-03-28T12:39:12.013Z,12.40
2018-03-28T12:59:43.810Z,12.80
2018-03-28T13:02:12.901Z,12.90
2018-03-28T13:04:41.116Z,12.90
2018-03-28T13:07:09.599Z,12.90
2018-03-28T13:09:37.883Z,12.80
2018-03-28T13:12:06.171Z,12.70
2018-03-28T13:14:34.498Z,12.50
2018-03-28T13:35:04.767Z,11.90
2018-03-28T13:55:36.311Z,11.50
2018-03-28T13:58:04.573Z,11.50
2018-03-28T14:00:32.986Z,11.40
2018-03-28T14:03:01.271Z,11.40
2018-03-28T14:05:30.349Z,11.30
2018-03-28T14:07:58.649Z,11.30
2018-03-28T14:10:26.964Z,11.30
2018-03-28T14:12:56.031Z,11.20
2018-03-28T14:15:25.072Z,11.20
2018-03-28T14:17:53.360Z,11.20
2018-03-28T14:20:21.635Z,11.20
2018-03-28T14:22:49.964Z,11.30
2018-03-28T14:25:18.288Z,11.30
2018-03-28T14:27:46.548Z,11.30
2018-03-28T14:30:15.575Z,11.10
2018-03-28T14:32:43.876Z,11.10
2018-03-28T14:53:16.184Z,11.00
2018-03-28T14:55:44.517Z,11.10
2018-03-28T14:58:12.811Z,11.10
2018-03-28T15:00:41.175Z,11.00
2018-03-28T15:03:09.508Z,11.00
2018-03-28T15:05:37.768Z,11.00
2018-03-28T15:08:06.090Z,11.10
2018-03-28T15:10:34.563Z,11.20
2018-03-28T15:13:02.920Z,11.20
2018-03-28T15:15:31.998Z,11.30
2018-03-28T15:18:00.479Z,11.30
2018-03-28T15:20:28.789Z,11.20
2018-03-28T15:22:57.056Z,11.30
2018-03-28T15:25:25.553Z,11.30
2018-03-28T15:27:53.812Z,11.40
2018-03-28T15:30:22.097Z,11.30
2018-03-28T15:32:50.654Z,11.30
2018-03-28T15:35:18.938Z,11.30
2018-03-28T15:37:47.199Z,11.40
2018-03-28T15:40:16.230Z,11.30
2018-03-28T15:42:44.544Z,11.30
2018-03-28T15:45:12.816Z,11.30
2018-03-28T15:47:41.144Z,11.40
2018-03-28T15:50:10.205Z,11.40
2018-03-28T15:52:38.432Z,11.40
2018-03-28T15:55:06.868Z,11.40
2018-03-28T15:57:35.123Z,11.40
2018-03-28T16:00:03.379Z,11.40
2018-03-28T16:02:32.327Z,11.30
2018-03-28T16:05:00.596Z,11.30
2018-03-28T16:07:28.873Z,11.20
2018-03-28T16:09:57.184Z,11.20
2018-03-28T16:12:25.439Z,11.20
2018-03-28T16:14:53.715Z,11.10
2018-03-28T16:17:22.070Z,11.10
2018-03-28T16:19:50.322Z,11.10
2018-03-28T16:22:19.362Z,11.00
2018-03-28T16:24:47.938Z,11.00
2018-03-28T16:27:16.228Z,11.00
2018-03-28T16:29:44.504Z,10.90
2018-03-28T16:32:12.966Z,10.80
2018-03-28T16:34:42.002Z,10.80
2018-03-28T16:37:10.276Z,10.80
2018-03-28T16:39:38.754Z,10.80
2018-03-28T16:42:07.004Z,10.80
2018-03-28T16:44:36.006Z,10.80
2018-03-28T16:47:04.316Z,10.80
2018-03-28T16:49:32.546Z,10.80
2018-03-28T16:52:01.593Z,10.80
2018-03-28T16:54:29.842Z,10.80
2018-03-28T16:56:58.126Z,10.70
2018-03-28T16:59:27.184Z,10.70
2018-03-28T17:01:55.697Z,10.70
2018-03-28T17:04:25.048Z,10.60
2018-03-28T17:06:53.340Z,10.60
2018-03-28T17:09:21.831Z,10.60
2018-03-28T17:29:53.129Z,10.60
2018-03-28T17:32:21.613Z,10.60
2018-03-28T17:34:49.875Z,10.60
2018-03-28T17:37:18.118Z,10.50
2018-03-28T17:39:46.420Z,10.50
2018-03-28T17:42:14.691Z,10.50
2018-03-28T17:44:42.926Z,10.50
2018-03-28T17:47:11.215Z,10.40
2018-03-28T17:49:40.238Z,10.30
2018-03-28T17:52:08.475Z,10.30
2018-03-28T17:54:37.777Z,10.30
2018-03-28T17:57:06.047Z,10.30
2018-03-28T17:59:34.351Z,10.30
2018-03-28T18:02:03.574Z,10.30
2018-03-28T18:04:31.952Z,10.20
2018-03-28T18:07:00.260Z,10.20
2018-03-28T18:09:28.672Z,10.10
2018-03-28T18:11:56.932Z,10.10
2018-03-28T18:14:25.232Z,10.10
2018-03-28T18:16:53.733Z,10.10
2018-03-28T18:19:22.033Z,10.10
2018-03-28T18:21:51.639Z,10.10
2018-03-28T18:42:25.259Z,9.90
2018-03-28T18:44:54.255Z,9.90
2018-03-28T18:47:23.328Z,9.90
2018-03-28T19:07:54.242Z,10.10
2018-03-28T19:10:22.516Z,10.10
2018-03-28T19:12:50.776Z,10.10
2018-03-28T19:15:19.781Z,10.00
2018-03-28T19:17:48.056Z,10.00
2018-03-28T19:20:16.307Z,10.10
2018-03-28T19:22:44.786Z,10.10
2018-03-28T19:25:13.011Z,10.00
2018-03-28T19:45:45.488Z,9.70
2018-03-28T19:48:13.772Z,9.70
2018-03-28T19:50:42.838Z,9.50
2018-03-28T19:53:11.126Z,9.40
2018-03-28T19:55:39.421Z,9.30
2018-03-28T19:58:07.705Z,9.20
2018-03-28T20:00:35.996Z,9.10
2018-03-28T20:03:05.048Z,9.00
2018-03-28T20:05:33.271Z,9.00
2018-03-28T20:08:02.308Z,9.00
2018-03-28T20:10:30.577Z,9.00
2018-03-28T20:12:58.876Z,9.00
2018-03-28T20:15:27.164Z,9.00
2018-03-28T20:17:55.421Z,8.90
2018-03-28T20:20:23.760Z,8.90
2018-03-28T20:22:52.060Z,8.90
2018-03-28T20:25:21.088Z,9.00
2018-03-28T20:27:49.358Z,8.90
2018-03-28T20:30:17.656Z,9.00
2018-03-28T20:32:45.915Z,9.00
2018-03-28T20:35:14.204Z,8.90
2018-03-28T20:37:42.826Z,8.90
2018-03-28T20:40:11.136Z,8.90
2018-03-28T20:42:39.428Z,8.80
2018-03-28T20:45:08.761Z,8.80
2018-03-28T20:47:37.060Z,8.70
2018-03-28T20:50:05.281Z,8.70
2018-03-28T20:52:33.731Z,8.70
2018-03-28T20:55:01.969Z,8.60
2018-03-28T20:57:30.238Z,8.60
2018-03-28T21:18:00.940Z,8.30
2018-03-28T21:20:29.197Z,8.30
2018-03-28T21:22:57.493Z,8.30
2018-03-28T21:25:26.023Z,8.30
2018-03-28T21:27:54.272Z,8.30
2018-03-28T21:30:22.504Z,8.30
2018-03-28T21:32:50.812Z,8.30
2018-03-28T21:35:19.054Z,8.30
2018-03-28T21:55:49.372Z,8.30
2018-03-28T21:58:17.667Z,8.20
2018-03-28T22:00:45.953Z,8.20
2018-03-28T22:03:14.424Z,8.30
2018-03-28T22:05:42.646Z,8.30
2018-03-28T22:08:10.940Z,8.40
2018-03-28T22:10:39.211Z,8.40
2018-03-28T22:13:07.441Z,8.30
2018-03-28T22:15:35.741Z,8.30
2018-03-28T22:18:04.763Z,8.40
2018-03-28T22:20:33.004Z,8.40
2018-03-28T22:23:01.283Z,8.40
2018-03-28T22:25:29.631Z,8.40
2018-03-28T22:27:57.901Z,8.50
2018-03-28T22:30:26.126Z,8.50
2018-03-28T22:32:55.306Z,8.60
2018-03-28T22:35:23.536Z,8.50
2018-03-28T22:37:51.836Z,8.50
2018-03-28T22:40:20.351Z,8.50
2018-03-28T22:42:48.594Z,8.50
2018-03-28T22:45:16.837Z,8.50
2018-03-28T22:47:45.987Z,8.50
2018-03-28T22:50:14.284Z,8.50
2018-03-28T22:52:42.507Z,8.50
2018-03-28T22:55:11.800Z,8.50
2018-03-28T22:57:40.848Z,8.50
2018-03-28T23:00:09.124Z,8.50
2018-03-28T23:02:37.948Z,8.50
2018-03-28T23:23:11.647Z,8.40
2018-03-28T23:25:39.910Z,8.30
2018-03-28T23:28:08.180Z,8.20
2018-03-28T23:30:36.465Z,8.20
2018-03-28T23:33:05.818Z,8.00
2018-03-28T23:35:34.052Z,8.00
2018-03-28T23:38:02.320Z,8.00
2018-03-28T23:40:31.577Z,7.80
2018-03-28T23:42:59.848Z,7.80
2018-03-28T23:45:28.086Z,7.80
2018-03-28T23:47:56.624Z,7.80
2018-03-28T23:50:24.887Z,7.70
2018-03-28T23:52:53.221Z,7.70
2018-03-28T23:55:21.474Z,7.60
2018-03-28T23:57:49.750Z,7.60
